sensor_id;sensor_type;location;lat;lon;timestamp;P1;durP1;ratioP1;P2;durP2;ratioP2
1140;SDS011;559;48.628;8.924;2022-10-16T00:00:41;49.60;;;46.40;;
1140;SDS011;559;48.628;8.924;2022-10-16T00:03:08;51.60;;;48.40;;
1140;SDS011;559;48.628;8.924;2022-10-16T00:05:37;48.10;;;45.00;;
1140;SDS011;559;48.628;8.924;2022-10-16T00:08:05;48.90;;;45.60;;
1140;SDS011;559;48.628;8.924;2022-10-16T00:10:31;49.97;;;46.87;;
1140;SDS011;559;48.628;8.924;2022-10-16T00:12:59;53.77;;;50.00;;
1140;SDS011;559;48.628;8.924;2022-10-16T00:15:26;51.47;;;47.87;;
1140;SDS011;559;48.628;8.924;2022-10-16T00:17:52;53.80;;;50.37;;
1140;SDS011;559;48.628;8.924;2022-10-16T00:20:19;54.70;;;51.30;;
1140;SDS011;559;48.628;8.924;2022-10-16T00:22:45;54.97;;;51.43;;
1140;SDS011;559;48.628;8.924;2022-10-16T00:25:12;58.10;;;54.50;;
1140;SDS011;559;48.628;8.924;2022-10-16T00:27:38;56.27;;;52.67;;
1140;SDS011;559;48.628;8.924;2022-10-16T00:30:07;54.40;;;50.93;;
1140;SDS011;559;48.628;8.924;2022-10-16T00:32:34;53.93;;;50.43;;
1140;SDS011;559;48.628;8.924;2022-10-16T00:35:01;54.50;;;51.20;;
1140;SDS011;559;48.628;8.924;2022-10-16T00:37:28;54.00;;;50.50;;
1140;SDS011;559;48.628;8.924;2022-10-16T00:39:55;53.57;;;50.07;;
1140;SDS011;559;48.628;8.924;2022-10-16T00:42:22;53.87;;;50.27;;
1140;SDS011;559;48.628;8.924;2022-10-16T00:44:49;54.83;;;51.27;;
1140;SDS011;559;48.628;8.924;2022-10-16T00:47:19;55.50;;;51.80;;
1140;SDS011;559;48.628;8.924;2022-10-16T00:49:47;54.13;;;50.60;;
1140;SDS011;559;48.628;8.924;2022-10-16T00:52:16;56.77;;;52.97;;
1140;SDS011;559;48.628;8.924;2022-10-16T00:54:43;54.87;;;51.00;;
1140;SDS011;559;48.628;8.924;2022-10-16T00:57:11;49.70;;;45.90;;
1140;SDS011;559;48.628;8.924;2022-10-16T00:59:38;50.47;;;47.27;;
1140;SDS011;559;48.628;8.924;2022-10-16T01:02:06;54.20;;;50.70;;
1140;SDS011;559;48.628;8.924;2022-10-16T01:04:40;52.87;;;49.37;;
1140;SDS011;559;48.628;8.924;2022-10-16T01:07:10;51.90;;;48.50;;
1140;SDS011;559;48.628;8.924;2022-10-16T01:09:43;51.57;;;48.07;;
1140;SDS011;559;48.628;8.924;2022-10-16T01:12:16;53.83;;;50.27;;
1140;SDS011;559;48.628;8.924;2022-10-16T01:14:47;57.27;;;53.60;;
1140;SDS011;559;48.628;8.924;2022-10-16T01:17:16;60.07;;;56.17;;
1140;SDS011;559;48.628;8.924;2022-10-16T01:19:52;59.93;;;55.80;;
1140;SDS011;559;48.628;8.924;2022-10-16T01:22:30;59.33;;;55.43;;
1140;SDS011;559;48.628;8.924;2022-10-16T01:25:05;56.80;;;52.70;;
1140;SDS011;559;48.628;8.924;2022-10-16T01:27:37;53.92;;;49.65;;
1140;SDS011;559;48.628;8.924;2022-10-16T01:30:07;54.78;;;50.97;;
1140;SDS011;559;48.628;8.924;2022-10-16T01:32:38;58.60;;;54.70;;
1140;SDS011;559;48.628;8.924;2022-10-16T01:35:08;64.97;;;60.95;;
1140;SDS011;559;48.628;8.924;2022-10-16T01:37:36;61.83;;;57.83;;
1140;SDS011;559;48.628;8.924;2022-10-16T01:40:07;62.55;;;58.20;;
1140;SDS011;559;48.628;8.924;2022-10-16T01:42:37;60.65;;;56.67;;
1140;SDS011;559;48.628;8.924;2022-10-16T01:45:06;58.50;;;54.60;;
1140;SDS011;559;48.628;8.924;2022-10-16T01:47:36;57.72;;;53.80;;
1140;SDS011;559;48.628;8.924;2022-10-16T01:50:04;60.13;;;55.93;;
1140;SDS011;559;48.628;8.924;2022-10-16T01:52:32;62.73;;;58.50;;
1140;SDS011;559;48.628;8.924;2022-10-16T01:55:01;59.60;;;55.60;;
1140;SDS011;559;48.628;8.924;2022-10-16T01:57:28;55.50;;;51.70;;
1140;SDS011;559;48.628;8.924;2022-10-16T01:59:58;60.65;;;56.65;;
1140;SDS011;559;48.628;8.924;2022-10-16T02:02:28;55.73;;;51.93;;
1140;SDS011;559;48.628;8.924;2022-10-16T02:04:57;54.93;;;51.13;;
1140;SDS011;559;48.628;8.924;2022-10-16T02:07:25;51.00;;;47.40;;
1140;SDS011;559;48.628;8.924;2022-10-16T02:09:51;55.87;;;52.17;;
1140;SDS011;559;48.628;8.924;2022-10-16T02:12:19;55.90;;;52.00;;
1140;SDS011;559;48.628;8.924;2022-10-16T02:14:48;55.30;;;51.40;;
1140;SDS011;559;48.628;8.924;2022-10-16T02:17:19;54.77;;;50.97;;
1140;SDS011;559;48.628;8.924;2022-10-16T02:19:47;55.57;;;51.77;;
1140;SDS011;559;48.628;8.924;2022-10-16T02:22:15;54.50;;;50.63;;
1140;SDS011;559;48.628;8.924;2022-10-16T02:24:43;57.13;;;53.47;;
1140;SDS011;559;48.628;8.924;2022-10-16T02:27:17;57.77;;;53.67;;
1140;SDS011;559;48.628;8.924;2022-10-16T02:29:47;53.70;;;50.10;;
1140;SDS011;559;48.628;8.924;2022-10-16T02:32:17;57.87;;;54.03;;
1140;SDS011;559;48.628;8.924;2022-10-16T02:34:46;56.50;;;52.73;;
1140;SDS011;559;48.628;8.924;2022-10-16T02:37:13;55.13;;;51.33;;
1140;SDS011;559;48.628;8.924;2022-10-16T02:39:39;56.97;;;53.17;;
1140;SDS011;559;48.628;8.924;2022-10-16T02:42:09;55.93;;;52.23;;
1140;SDS011;559;48.628;8.924;2022-10-16T02:44:36;61.67;;;57.27;;
1140;SDS011;559;48.628;8.924;2022-10-16T02:47:02;61.23;;;57.33;;
1140;SDS011;559;48.628;8.924;2022-10-16T02:49:30;57.53;;;53.73;;
1140;SDS011;559;48.628;8.924;2022-10-16T02:51:57;60.80;;;57.00;;
1140;SDS011;559;48.628;8.924;2022-10-16T02:54:23;61.10;;;57.20;;
1140;SDS011;559;48.628;8.924;2022-10-16T02:56:50;62.63;;;58.70;;
1140;SDS011;559;48.628;8.924;2022-10-16T02:59:16;57.30;;;53.70;;
1140;SDS011;559;48.628;8.924;2022-10-16T03:01:43;55.90;;;52.40;;
1140;SDS011;559;48.628;8.924;2022-10-16T03:04:10;60.00;;;56.30;;
1140;SDS011;559;48.628;8.924;2022-10-16T03:06:37;59.80;;;55.77;;
1140;SDS011;559;48.628;8.924;2022-10-16T03:09:04;59.50;;;55.60;;
1140;SDS011;559;48.628;8.924;2022-10-16T03:11:30;58.60;;;55.00;;
1140;SDS011;559;48.628;8.924;2022-10-16T03:13:57;57.40;;;53.90;;
1140;SDS011;559;48.628;8.924;2022-10-16T03:16:23;50.30;;;47.03;;
1140;SDS011;559;48.628;8.924;2022-10-16T03:18:50;52.03;;;48.73;;
1140;SDS011;559;48.628;8.924;2022-10-16T03:21:16;51.20;;;47.90;;
1140;SDS011;559;48.628;8.924;2022-10-16T03:23:44;52.17;;;48.67;;
1140;SDS011;559;48.628;8.924;2022-10-16T03:26:11;51.03;;;47.73;;
1140;SDS011;559;48.628;8.924;2022-10-16T03:28:38;51.20;;;47.90;;
1140;SDS011;559;48.628;8.924;2022-10-16T03:31:04;50.23;;;47.03;;
1140;SDS011;559;48.628;8.924;2022-10-16T03:33:31;48.40;;;45.30;;
1140;SDS011;559;48.628;8.924;2022-10-16T03:35:57;49.83;;;46.73;;
1140;SDS011;559;48.628;8.924;2022-10-16T03:38:24;50.20;;;46.90;;
1140;SDS011;559;48.628;8.924;2022-10-16T03:40:52;52.60;;;49.00;;
1140;SDS011;559;48.628;8.924;2022-10-16T03:43:18;51.80;;;48.50;;
1140;SDS011;559;48.628;8.924;2022-10-16T03:45:44;52.17;;;48.67;;
1140;SDS011;559;48.628;8.924;2022-10-16T03:48:11;52.53;;;49.13;;
1140;SDS011;559;48.628;8.924;2022-10-16T03:50:37;50.47;;;47.37;;
1140;SDS011;559;48.628;8.924;2022-10-16T03:53:04;50.50;;;46.97;;
1140;SDS011;559;48.628;8.924;2022-10-16T03:55:30;47.80;;;44.70;;
1140;SDS011;559;48.628;8.924;2022-10-16T03:57:58;48.13;;;44.93;;
1140;SDS011;559;48.628;8.924;2022-10-16T04:00:25;46.57;;;43.43;;
1140;SDS011;559;48.628;8.924;2022-10-16T04:02:51;44.90;;;41.67;;
1140;SDS011;559;48.628;8.924;2022-10-16T04:05:18;45.50;;;42.50;;
1140;SDS011;559;48.628;8.924;2022-10-16T04:07:44;44.47;;;41.47;;
1140;SDS011;559;48.628;8.924;2022-10-16T04:10:11;44.90;;;41.90;;
1140;SDS011;559;48.628;8.924;2022-10-16T04:12:37;45.57;;;42.50;;
1140;SDS011;559;48.628;8.924;2022-10-16T04:15:06;44.70;;;41.77;;
1140;SDS011;559;48.628;8.924;2022-10-16T04:17:33;44.83;;;41.83;;
1140;SDS011;559;48.628;8.924;2022-10-16T04:19:59;47.17;;;43.87;;
1140;SDS011;559;48.628;8.924;2022-10-16T04:22:26;45.20;;;42.20;;
1140;SDS011;559;48.628;8.924;2022-10-16T04:24:52;48.50;;;45.40;;
1140;SDS011;559;48.628;8.924;2022-10-16T04:27:19;50.43;;;47.27;;
1140;SDS011;559;48.628;8.924;2022-10-16T04:29:45;50.30;;;47.10;;
1140;SDS011;559;48.628;8.924;2022-10-16T04:32:13;51.27;;;48.07;;
1140;SDS011;559;48.628;8.924;2022-10-16T04:34:39;49.90;;;46.90;;
1140;SDS011;559;48.628;8.924;2022-10-16T04:37:06;50.10;;;47.03;;
1140;SDS011;559;48.628;8.924;2022-10-16T04:39:32;51.33;;;48.27;;
1140;SDS011;559;48.628;8.924;2022-10-16T04:41:59;50.27;;;47.27;;
1140;SDS011;559;48.628;8.924;2022-10-16T04:44:25;48.73;;;45.63;;
1140;SDS011;559;48.628;8.924;2022-10-16T04:46:52;52.10;;;48.90;;
1140;SDS011;559;48.628;8.924;2022-10-16T04:49:20;52.60;;;49.50;;
1140;SDS011;559;48.628;8.924;2022-10-16T04:51:46;49.20;;;46.10;;
1140;SDS011;559;48.628;8.924;2022-10-16T04:54:13;46.83;;;43.83;;
1140;SDS011;559;48.628;8.924;2022-10-16T04:56:39;46.70;;;43.63;;
1140;SDS011;559;48.628;8.924;2022-10-16T04:59:11;46.47;;;43.47;;
1140;SDS011;559;48.628;8.924;2022-10-16T05:01:38;45.80;;;42.90;;
1140;SDS011;559;48.628;8.924;2022-10-16T05:04:04;44.90;;;42.00;;
1140;SDS011;559;48.628;8.924;2022-10-16T05:06:32;50.47;;;47.07;;
1140;SDS011;559;48.628;8.924;2022-10-16T05:08:59;51.87;;;48.67;;
1140;SDS011;559;48.628;8.924;2022-10-16T05:11:25;51.20;;;47.90;;
1140;SDS011;559;48.628;8.924;2022-10-16T05:13:52;52.13;;;49.03;;
1140;SDS011;559;48.628;8.924;2022-10-16T05:16:18;49.20;;;46.20;;
1140;SDS011;559;48.628;8.924;2022-10-16T05:18:45;53.43;;;50.33;;
1140;SDS011;559;48.628;8.924;2022-10-16T05:21:12;51.50;;;48.40;;
1140;SDS011;559;48.628;8.924;2022-10-16T05:23:39;53.87;;;50.47;;
1140;SDS011;559;48.628;8.924;2022-10-16T05:26:06;52.50;;;49.30;;
1140;SDS011;559;48.628;8.924;2022-10-16T05:28:33;50.30;;;47.00;;
1140;SDS011;559;48.628;8.924;2022-10-16T05:31:03;54.03;;;50.83;;
1140;SDS011;559;48.628;8.924;2022-10-16T05:33:30;55.10;;;51.90;;
1140;SDS011;559;48.628;8.924;2022-10-16T05:35:57;53.97;;;50.67;;
1140;SDS011;559;48.628;8.924;2022-10-16T05:38:27;54.57;;;51.47;;
1140;SDS011;559;48.628;8.924;2022-10-16T05:40:55;55.40;;;52.30;;
1140;SDS011;559;48.628;8.924;2022-10-16T05:43:21;61.40;;;58.00;;
1140;SDS011;559;48.628;8.924;2022-10-16T05:45:53;52.90;;;49.70;;
1140;SDS011;559;48.628;8.924;2022-10-16T05:48:20;54.40;;;51.20;;
1140;SDS011;559;48.628;8.924;2022-10-16T05:50:47;53.80;;;50.40;;
1140;SDS011;559;48.628;8.924;2022-10-16T05:53:13;56.77;;;53.27;;
1140;SDS011;559;48.628;8.924;2022-10-16T05:55:40;55.50;;;52.20;;
1140;SDS011;559;48.628;8.924;2022-10-16T05:58:08;55.50;;;52.17;;
1140;SDS011;559;48.628;8.924;2022-10-16T06:00:34;48.90;;;45.70;;
1140;SDS011;559;48.628;8.924;2022-10-16T06:03:01;49.63;;;46.73;;
1140;SDS011;559;48.628;8.924;2022-10-16T06:05:27;48.07;;;45.20;;
1140;SDS011;559;48.628;8.924;2022-10-16T06:07:54;50.00;;;46.70;;
1140;SDS011;559;48.628;8.924;2022-10-16T06:10:20;52.20;;;49.20;;
1140;SDS011;559;48.628;8.924;2022-10-16T06:12:47;49.70;;;46.70;;
1140;SDS011;559;48.628;8.924;2022-10-16T06:15:15;53.13;;;49.93;;
1140;SDS011;559;48.628;8.924;2022-10-16T06:17:41;51.20;;;48.20;;
1140;SDS011;559;48.628;8.924;2022-10-16T06:20:08;51.13;;;47.80;;
1140;SDS011;559;48.628;8.924;2022-10-16T06:22:35;51.10;;;48.20;;
1140;SDS011;559;48.628;8.924;2022-10-16T06:25:01;48.83;;;45.93;;
1140;SDS011;559;48.628;8.924;2022-10-16T06:27:28;47.20;;;44.33;;
1140;SDS011;559;48.628;8.924;2022-10-16T06:29:55;48.40;;;45.20;;
1140;SDS011;559;48.628;8.924;2022-10-16T06:32:23;46.17;;;43.37;;
1140;SDS011;559;48.628;8.924;2022-10-16T06:34:50;46.87;;;43.97;;
1140;SDS011;559;48.628;8.924;2022-10-16T06:37:16;46.90;;;43.90;;
1140;SDS011;559;48.628;8.924;2022-10-16T06:39:43;46.87;;;43.90;;
1140;SDS011;559;48.628;8.924;2022-10-16T06:42:09;45.77;;;42.80;;
1140;SDS011;559;48.628;8.924;2022-10-16T06:44:36;45.47;;;42.67;;
1140;SDS011;559;48.628;8.924;2022-10-16T06:47:02;44.43;;;41.73;;
1140;SDS011;559;48.628;8.924;2022-10-16T06:49:30;46.03;;;43.23;;
1140;SDS011;559;48.628;8.924;2022-10-16T06:51:57;46.23;;;43.30;;
1140;SDS011;559;48.628;8.924;2022-10-16T06:54:23;45.40;;;42.80;;
1140;SDS011;559;48.628;8.924;2022-10-16T06:56:50;45.80;;;42.80;;
1140;SDS011;559;48.628;8.924;2022-10-16T06:59:19;46.93;;;43.90;;
1140;SDS011;559;48.628;8.924;2022-10-16T07:01:45;47.20;;;44.30;;
1140;SDS011;559;48.628;8.924;2022-10-16T07:04:12;46.20;;;43.20;;
1140;SDS011;559;48.628;8.924;2022-10-16T07:06:40;46.53;;;43.73;;
1140;SDS011;559;48.628;8.924;2022-10-16T07:09:07;47.23;;;44.33;;
1140;SDS011;559;48.628;8.924;2022-10-16T07:11:35;46.87;;;44.00;;
1140;SDS011;559;48.628;8.924;2022-10-16T07:14:02;44.70;;;42.10;;
1140;SDS011;559;48.628;8.924;2022-10-16T07:16:30;44.70;;;42.00;;
1140;SDS011;559;48.628;8.924;2022-10-16T07:18:58;43.37;;;40.67;;
1140;SDS011;559;48.628;8.924;2022-10-16T07:21:26;47.93;;;45.23;;
1140;SDS011;559;48.628;8.924;2022-10-16T07:23:55;44.47;;;41.87;;
1140;SDS011;559;48.628;8.924;2022-10-16T07:26:23;48.10;;;45.33;;
1140;SDS011;559;48.628;8.924;2022-10-16T07:28:50;49.33;;;46.50;;
1140;SDS011;559;48.628;8.924;2022-10-16T07:31:18;50.90;;;47.90;;
1140;SDS011;559;48.628;8.924;2022-10-16T07:33:45;53.43;;;50.40;;
1140;SDS011;559;48.628;8.924;2022-10-16T07:36:13;59.07;;;54.80;;
1140;SDS011;559;48.628;8.924;2022-10-16T07:38:40;49.77;;;46.87;;
1140;SDS011;559;48.628;8.924;2022-10-16T07:41:10;49.20;;;46.40;;
1140;SDS011;559;48.628;8.924;2022-10-16T07:43:38;48.80;;;45.83;;
1140;SDS011;559;48.628;8.924;2022-10-16T07:46:05;47.90;;;45.10;;
1140;SDS011;559;48.628;8.924;2022-10-16T07:48:32;52.00;;;48.33;;
1140;SDS011;559;48.628;8.924;2022-10-16T07:50:59;49.80;;;47.00;;
1140;SDS011;559;48.628;8.924;2022-10-16T07:53:26;47.80;;;45.00;;
1140;SDS011;559;48.628;8.924;2022-10-16T07:55:56;49.80;;;47.00;;
1140;SDS011;559;48.628;8.924;2022-10-16T07:58:24;49.20;;;46.40;;
1140;SDS011;559;48.628;8.924;2022-10-16T08:00:51;47.90;;;45.10;;
1140;SDS011;559;48.628;8.924;2022-10-16T08:03:18;46.77;;;44.10;;
1140;SDS011;559;48.628;8.924;2022-10-16T08:05:44;46.30;;;43.43;;
1140;SDS011;559;48.628;8.924;2022-10-16T08:08:11;46.17;;;43.17;;
1140;SDS011;559;48.628;8.924;2022-10-16T08:10:39;45.27;;;42.50;;
1140;SDS011;559;48.628;8.924;2022-10-16T08:13:05;45.10;;;42.40;;
1140;SDS011;559;48.628;8.924;2022-10-16T08:15:33;44.50;;;41.80;;
1140;SDS011;559;48.628;8.924;2022-10-16T08:18:00;44.33;;;41.73;;
1140;SDS011;559;48.628;8.924;2022-10-16T08:20:28;44.67;;;42.10;;
1140;SDS011;559;48.628;8.924;2022-10-16T08:22:56;44.10;;;41.43;;
1140;SDS011;559;48.628;8.924;2022-10-16T08:25:23;43.60;;;41.20;;
1140;SDS011;559;48.628;8.924;2022-10-16T08:27:50;42.57;;;40.27;;
1140;SDS011;559;48.628;8.924;2022-10-16T08:30:17;40.87;;;38.57;;
1140;SDS011;559;48.628;8.924;2022-10-16T08:32:46;40.10;;;37.50;;
1140;SDS011;559;48.628;8.924;2022-10-16T08:35:13;40.73;;;38.33;;
1140;SDS011;559;48.628;8.924;2022-10-16T08:37:40;39.60;;;37.40;;
1140;SDS011;559;48.628;8.924;2022-10-16T08:40:12;42.03;;;39.43;;
1140;SDS011;559;48.628;8.924;2022-10-16T08:42:50;42.43;;;39.93;;
1140;SDS011;559;48.628;8.924;2022-10-16T08:45:26;41.67;;;38.90;;
1140;SDS011;559;48.628;8.924;2022-10-16T08:48:03;40.53;;;38.13;;
1140;SDS011;559;48.628;8.924;2022-10-16T08:50:36;41.50;;;39.00;;
1140;SDS011;559;48.628;8.924;2022-10-16T08:53:05;40.87;;;38.37;;
1140;SDS011;559;48.628;8.924;2022-10-16T08:55:33;40.50;;;38.10;;
1140;SDS011;559;48.628;8.924;2022-10-16T08:58:07;40.40;;;38.00;;
1140;SDS011;559;48.628;8.924;2022-10-16T09:00:37;41.13;;;38.53;;
1140;SDS011;559;48.628;8.924;2022-10-16T09:03:07;41.73;;;39.23;;
1140;SDS011;559;48.628;8.924;2022-10-16T09:05:44;40.37;;;38.07;;
1140;SDS011;559;48.628;8.924;2022-10-16T09:08:17;40.47;;;38.17;;
1140;SDS011;559;48.628;8.924;2022-10-16T09:10:49;41.97;;;39.50;;
1140;SDS011;559;48.628;8.924;2022-10-16T09:13:21;42.60;;;40.20;;
1140;SDS011;559;48.628;8.924;2022-10-16T09:15:52;42.40;;;39.80;;
1140;SDS011;559;48.628;8.924;2022-10-16T09:18:26;46.70;;;44.30;;
1140;SDS011;559;48.628;8.924;2022-10-16T09:20:57;45.67;;;43.53;;
1140;SDS011;559;48.628;8.924;2022-10-16T09:23:27;40.70;;;38.50;;
1140;SDS011;559;48.628;8.924;2022-10-16T09:25:55;43.73;;;41.63;;
1140;SDS011;559;48.628;8.924;2022-10-16T09:28:22;44.13;;;42.00;;
1140;SDS011;559;48.628;8.924;2022-10-16T09:30:48;38.73;;;36.83;;
1140;SDS011;559;48.628;8.924;2022-10-16T09:33:15;37.80;;;36.10;;
1140;SDS011;559;48.628;8.924;2022-10-16T09:35:45;37.53;;;35.80;;
1140;SDS011;559;48.628;8.924;2022-10-16T09:38:22;35.27;;;33.53;;
1140;SDS011;559;48.628;8.924;2022-10-16T09:40:51;35.53;;;34.13;;
1140;SDS011;559;48.628;8.924;2022-10-16T09:43:22;33.53;;;32.00;;
1140;SDS011;559;48.628;8.924;2022-10-16T09:45:56;35.90;;;34.60;;
1140;SDS011;559;48.628;8.924;2022-10-16T09:48:23;35.10;;;33.90;;
1140;SDS011;559;48.628;8.924;2022-10-16T09:50:56;32.50;;;31.27;;
1140;SDS011;559;48.628;8.924;2022-10-16T09:53:23;31.80;;;30.50;;
1140;SDS011;559;48.628;8.924;2022-10-16T09:55:53;31.37;;;30.30;;
1140;SDS011;559;48.628;8.924;2022-10-16T09:58:21;29.57;;;28.30;;
1140;SDS011;559;48.628;8.924;2022-10-16T10:00:51;28.73;;;27.73;;
1140;SDS011;559;48.628;8.924;2022-10-16T10:03:32;29.80;;;28.60;;
1140;SDS011;559;48.628;8.924;2022-10-16T10:06:03;28.30;;;27.30;;
1140;SDS011;559;48.628;8.924;2022-10-16T10:08:32;28.07;;;27.07;;
1140;SDS011;559;48.628;8.924;2022-10-16T10:10:59;29.90;;;28.80;;
1140;SDS011;559;48.628;8.924;2022-10-16T10:13:25;30.53;;;29.10;;
1140;SDS011;559;48.628;8.924;2022-10-16T10:15:52;29.30;;;28.30;;
1140;SDS011;559;48.628;8.924;2022-10-16T10:18:20;29.57;;;28.57;;
1140;SDS011;559;48.628;8.924;2022-10-16T10:20:56;28.30;;;27.20;;
1140;SDS011;559;48.628;8.924;2022-10-16T10:23:25;28.00;;;27.10;;
1140;SDS011;559;48.628;8.924;2022-10-16T10:25:53;29.70;;;28.50;;
1140;SDS011;559;48.628;8.924;2022-10-16T10:28:38;29.33;;;28.33;;
1140;SDS011;559;48.628;8.924;2022-10-16T10:31:13;29.60;;;28.50;;
1140;SDS011;559;48.628;8.924;2022-10-16T10:33:42;26.33;;;25.50;;
1140;SDS011;559;48.628;8.924;2022-10-16T10:36:22;27.30;;;26.30;;
1140;SDS011;559;48.628;8.924;2022-10-16T10:38:57;24.60;;;23.73;;
1140;SDS011;559;48.628;8.924;2022-10-16T10:44:23;28.20;;;27.17;;
1140;SDS011;559;48.628;8.924;2022-10-16T10:46:55;29.07;;;28.07;;
1140;SDS011;559;48.628;8.924;2022-10-16T10:49:29;32.20;;;31.20;;
1140;SDS011;559;48.628;8.924;2022-10-16T10:52:05;31.50;;;30.50;;
1140;SDS011;559;48.628;8.924;2022-10-16T10:54:41;35.47;;;34.10;;
1140;SDS011;559;48.628;8.924;2022-10-16T10:57:15;37.00;;;35.80;;
1140;SDS011;559;48.628;8.924;2022-10-16T10:59:54;43.43;;;41.83;;
1140;SDS011;559;48.628;8.924;2022-10-16T11:02:26;45.17;;;43.33;;
1140;SDS011;559;48.628;8.924;2022-10-16T11:05:02;49.60;;;47.93;;
1140;SDS011;559;48.628;8.924;2022-10-16T11:07:43;50.60;;;48.90;;
1140;SDS011;559;48.628;8.924;2022-10-16T11:10:15;48.87;;;47.27;;
1140;SDS011;559;48.628;8.924;2022-10-16T11:12:45;50.60;;;49.00;;
1140;SDS011;559;48.628;8.924;2022-10-16T11:15:15;51.73;;;50.07;;
1140;SDS011;559;48.628;8.924;2022-10-16T11:17:45;57.53;;;55.73;;
1140;SDS011;559;48.628;8.924;2022-10-16T11:20:15;59.43;;;57.30;;
1140;SDS011;559;48.628;8.924;2022-10-16T11:22:44;59.87;;;58.07;;
1140;SDS011;559;48.628;8.924;2022-10-16T11:25:16;62.50;;;60.60;;
1140;SDS011;559;48.628;8.924;2022-10-16T11:27:47;63.87;;;61.97;;
1140;SDS011;559;48.628;8.924;2022-10-16T11:30:18;58.07;;;56.00;;
1140;SDS011;559;48.628;8.924;2022-10-16T11:32:54;63.10;;;61.20;;
1140;SDS011;559;48.628;8.924;2022-10-16T11:35:31;65.90;;;63.97;;
1140;SDS011;559;48.628;8.924;2022-10-16T11:38:03;63.80;;;61.90;;
1140;SDS011;559;48.628;8.924;2022-10-16T11:40:38;59.10;;;57.43;;
1140;SDS011;559;48.628;8.924;2022-10-16T11:43:10;62.40;;;60.53;;
1140;SDS011;559;48.628;8.924;2022-10-16T11:45:40;64.83;;;62.83;;
1140;SDS011;559;48.628;8.924;2022-10-16T11:48:12;65.53;;;63.43;;
1140;SDS011;559;48.628;8.924;2022-10-16T11:50:45;70.23;;;68.20;;
1140;SDS011;559;48.628;8.924;2022-10-16T11:53:18;63.30;;;61.60;;
1140;SDS011;559;48.628;8.924;2022-10-16T11:55:51;65.87;;;64.03;;
1140;SDS011;559;48.628;8.924;2022-10-16T11:58:20;67.10;;;65.23;;
1140;SDS011;559;48.628;8.924;2022-10-16T12:00:51;51.43;;;50.00;;
1140;SDS011;559;48.628;8.924;2022-10-16T12:03:22;57.10;;;55.40;;
1140;SDS011;559;48.628;8.924;2022-10-16T12:06:06;57.70;;;55.93;;
1140;SDS011;559;48.628;8.924;2022-10-16T12:08:39;41.43;;;40.33;;
1140;SDS011;559;48.628;8.924;2022-10-16T12:11:08;29.43;;;28.53;;
1140;SDS011;559;48.628;8.924;2022-10-16T12:13:45;31.10;;;30.30;;
1140;SDS011;559;48.628;8.924;2022-10-16T12:16:20;30.20;;;29.30;;
1140;SDS011;559;48.628;8.924;2022-10-16T12:18:48;27.83;;;27.03;;
1140;SDS011;559;48.628;8.924;2022-10-16T12:21:15;23.77;;;23.17;;
1140;SDS011;559;48.628;8.924;2022-10-16T12:23:46;24.30;;;23.60;;
1140;SDS011;559;48.628;8.924;2022-10-16T12:26:15;25.00;;;24.27;;
1140;SDS011;559;48.628;8.924;2022-10-16T12:28:50;25.57;;;24.80;;
1140;SDS011;559;48.628;8.924;2022-10-16T12:31:16;25.90;;;25.20;;
1140;SDS011;559;48.628;8.924;2022-10-16T12:33:51;26.40;;;25.60;;
1140;SDS011;559;48.628;8.924;2022-10-16T12:36:26;25.93;;;25.17;;
1140;SDS011;559;48.628;8.924;2022-10-16T12:38:54;28.63;;;27.63;;
1140;SDS011;559;48.628;8.924;2022-10-16T12:41:25;33.00;;;32.00;;
1140;SDS011;559;48.628;8.924;2022-10-16T12:43:53;38.83;;;37.47;;
1140;SDS011;559;48.628;8.924;2022-10-16T12:46:21;44.43;;;43.23;;
1140;SDS011;559;48.628;8.924;2022-10-16T12:48:49;45.30;;;44.10;;
1140;SDS011;559;48.628;8.924;2022-10-16T12:51:23;47.63;;;46.33;;
1140;SDS011;559;48.628;8.924;2022-10-16T12:53:58;39.80;;;38.73;;
1140;SDS011;559;48.628;8.924;2022-10-16T12:56:27;30.40;;;29.33;;
1140;SDS011;559;48.628;8.924;2022-10-16T12:59:05;31.83;;;30.53;;
1140;SDS011;559;48.628;8.924;2022-10-16T13:01:41;33.20;;;32.00;;
1140;SDS011;559;48.628;8.924;2022-10-16T13:04:20;35.37;;;34.17;;
1140;SDS011;559;48.628;8.924;2022-10-16T13:07:03;33.03;;;32.13;;
1140;SDS011;559;48.628;8.924;2022-10-16T13:09:46;34.10;;;33.10;;
1140;SDS011;559;48.628;8.924;2022-10-16T13:12:25;31.63;;;30.50;;
1140;SDS011;559;48.628;8.924;2022-10-16T13:15:02;36.30;;;35.20;;
1140;SDS011;559;48.628;8.924;2022-10-16T13:17:39;21.07;;;20.00;;
1140;SDS011;559;48.628;8.924;2022-10-16T13:20:12;34.00;;;32.83;;
1140;SDS011;559;48.628;8.924;2022-10-16T13:22:45;42.97;;;41.70;;
1140;SDS011;559;48.628;8.924;2022-10-16T13:25:18;34.17;;;33.17;;
1140;SDS011;559;48.628;8.924;2022-10-16T13:27:52;29.50;;;28.70;;
1140;SDS011;559;48.628;8.924;2022-10-16T13:30:21;45.27;;;44.07;;
1140;SDS011;559;48.628;8.924;2022-10-16T13:32:50;49.43;;;48.03;;
1140;SDS011;559;48.628;8.924;2022-10-16T13:35:25;47.80;;;46.40;;
1140;SDS011;559;48.628;8.924;2022-10-16T13:38:02;62.60;;;60.80;;
1140;SDS011;559;48.628;8.924;2022-10-16T13:40:30;89.27;;;86.77;;
1140;SDS011;559;48.628;8.924;2022-10-16T13:42:59;88.97;;;86.47;;
1140;SDS011;559;48.628;8.924;2022-10-16T13:45:26;99.77;;;97.07;;
1140;SDS011;559;48.628;8.924;2022-10-16T13:48:01;105.40;;;102.40;;
1140;SDS011;559;48.628;8.924;2022-10-16T13:50:28;115.37;;;112.20;;
1140;SDS011;559;48.628;8.924;2022-10-16T13:53:02;122.50;;;119.00;;
1140;SDS011;559;48.628;8.924;2022-10-16T13:55:29;122.47;;;118.87;;
1140;SDS011;559;48.628;8.924;2022-10-16T13:58:05;126.83;;;123.33;;
1140;SDS011;559;48.628;8.924;2022-10-16T14:00:34;109.87;;;106.80;;
1140;SDS011;559;48.628;8.924;2022-10-16T14:03:01;104.87;;;102.13;;
1140;SDS011;559;48.628;8.924;2022-10-16T14:05:29;92.67;;;90.17;;
1140;SDS011;559;48.628;8.924;2022-10-16T14:07:56;105.60;;;102.80;;
1140;SDS011;559;48.628;8.924;2022-10-16T14:10:23;117.80;;;114.47;;
1140;SDS011;559;48.628;8.924;2022-10-16T14:12:55;109.43;;;106.43;;
1140;SDS011;559;48.628;8.924;2022-10-16T14:15:24;102.90;;;99.80;;
1140;SDS011;559;48.628;8.924;2022-10-16T14:17:51;110.30;;;107.30;;
1140;SDS011;559;48.628;8.924;2022-10-16T14:20:20;104.27;;;101.17;;
1140;SDS011;559;48.628;8.924;2022-10-16T14:22:48;108.87;;;105.83;;
1140;SDS011;559;48.628;8.924;2022-10-16T14:25:26;110.40;;;107.23;;
1140;SDS011;559;48.628;8.924;2022-10-16T14:27:57;111.87;;;108.77;;
1140;SDS011;559;48.628;8.924;2022-10-16T14:30:26;102.10;;;99.20;;
1140;SDS011;559;48.628;8.924;2022-10-16T14:32:53;119.07;;;115.60;;
1140;SDS011;559;48.628;8.924;2022-10-16T14:35:24;71.47;;;69.57;;
1140;SDS011;559;48.628;8.924;2022-10-16T14:37:53;94.23;;;91.53;;
1140;SDS011;559;48.628;8.924;2022-10-16T14:40:21;75.20;;;73.00;;
1140;SDS011;559;48.628;8.924;2022-10-16T14:42:50;83.93;;;81.67;;
1140;SDS011;559;48.628;8.924;2022-10-16T14:45:18;97.07;;;94.47;;
1140;SDS011;559;48.628;8.924;2022-10-16T14:47:50;107.83;;;104.83;;
1140;SDS011;559;48.628;8.924;2022-10-16T14:50:18;117.90;;;114.70;;
1140;SDS011;559;48.628;8.924;2022-10-16T14:52:45;124.00;;;120.50;;
1140;SDS011;559;48.628;8.924;2022-10-16T14:55:11;108.10;;;105.03;;
1140;SDS011;559;48.628;8.924;2022-10-16T14:57:38;102.13;;;99.40;;
1140;SDS011;559;48.628;8.924;2022-10-16T15:00:08;87.07;;;84.50;;
1140;SDS011;559;48.628;8.924;2022-10-16T15:02:40;86.47;;;84.17;;
1140;SDS011;559;48.628;8.924;2022-10-16T15:05:12;107.50;;;104.40;;
1140;SDS011;559;48.628;8.924;2022-10-16T15:07:41;102.47;;;99.47;;
1140;SDS011;559;48.628;8.924;2022-10-16T15:10:08;112.13;;;108.40;;
1140;SDS011;559;48.628;8.924;2022-10-16T15:12:34;110.07;;;106.77;;
1140;SDS011;559;48.628;8.924;2022-10-16T15:15:01;105.07;;;102.27;;